createdAt,value
2023-07-02T00:00:13.523Z,12.35
2023-07-02T00:02:41.776Z,11.50
2023-07-02T00:05:10.364Z,11.48
2023-07-02T00:07:38.774Z,11.95
2023-07-02T00:10:08.013Z,12.18
2023-07-02T00:12:37.657Z,12.57
2023-07-02T00:15:07.141Z,12.15
2023-07-02T00:17:35.519Z,11.68
2023-07-02T00:20:10.167Z,11.90
2023-07-02T00:22:38.379Z,11.50
2023-07-02T00:25:06.829Z,12.18
2023-07-02T00:27:35.171Z,12.73
2023-07-02T00:30:05.253Z,11.15
2023-07-02T00:32:33.519Z,11.73
2023-07-02T00:35:02.223Z,12.00
2023-07-02T00:37:30.443Z,12.02
2023-07-02T00:39:59.208Z,11.88
2023-07-02T00:42:30.682Z,12.75
2023-07-02T00:45:03.800Z,12.85
2023-07-02T00:47:36.636Z,12.60
2023-07-02T00:50:05.423Z,11.10
2023-07-02T00:52:33.592Z,11.90
2023-07-02T00:55:01.927Z,12.20
2023-07-02T00:57:31.072Z,12.18
2023-07-02T01:00:01.799Z,11.70
2023-07-02T01:02:30.949Z,12.05
2023-07-02T01:05:02.185Z,12.45
2023-07-02T01:07:31.041Z,12.90
2023-07-02T01:09:59.403Z,11.30
2023-07-02T01:12:29.055Z,11.40
2023-07-02T01:15:01.867Z,11.93
2023-07-02T01:17:42.621Z,11.90
2023-07-02T01:20:14.264Z,11.75
2023-07-02T01:22:43.282Z,12.07
2023-07-02T01:25:11.562Z,12.27
2023-07-02T01:27:40.315Z,12.55
2023-07-02T01:30:11.185Z,12.63
2023-07-02T01:32:40.808Z,12.07
2023-07-02T01:35:10.233Z,12.18
2023-07-02T01:37:40.622Z,12.57
2023-07-02T01:40:10.268Z,12.50
2023-07-02T01:42:39.574Z,12.00
2023-07-02T01:45:08.807Z,12.20
2023-07-02T01:47:37.170Z,12.70
2023-07-02T01:50:07.432Z,13.35
2023-07-02T01:52:36.562Z,12.98
2023-07-02T01:55:06.928Z,12.38
2023-07-02T01:57:35.237Z,12.70
2023-07-02T02:00:03.747Z,11.65
2023-07-02T02:02:44.413Z,12.90
2023-07-02T02:05:12.751Z,12.63
2023-07-02T02:07:41.000Z,12.15
2023-07-02T02:10:11.739Z,12.82
2023-07-02T02:12:39.835Z,13.02
2023-07-02T02:15:09.471Z,13.18
2023-07-02T02:17:37.748Z,12.35
2023-07-02T02:20:09.523Z,12.90
2023-07-02T02:22:38.349Z,12.20
2023-07-02T02:25:07.180Z,12.70
2023-07-02T02:27:37.009Z,12.63
2023-07-02T02:30:06.210Z,12.60
2023-07-02T02:32:36.590Z,12.90
2023-07-02T02:35:05.165Z,12.70
2023-07-02T02:37:36.102Z,13.88
2023-07-02T02:40:06.879Z,12.25
2023-07-02T02:42:36.919Z,12.68
2023-07-02T02:45:06.936Z,12.00
2023-07-02T02:47:36.505Z,12.80
2023-07-02T02:50:05.287Z,13.00
2023-07-02T02:52:33.427Z,12.80
2023-07-02T02:55:01.831Z,12.30
2023-07-02T02:57:30.277Z,12.63
2023-07-02T02:59:59.955Z,11.82
2023-07-02T03:02:28.330Z,13.18
2023-07-02T03:04:58.256Z,12.43
2023-07-02T03:07:26.472Z,13.43
2023-07-02T03:09:54.680Z,12.68
2023-07-02T03:12:26.759Z,12.77
2023-07-02T03:14:56.672Z,12.05
2023-07-02T03:17:27.112Z,11.82
2023-07-02T03:19:55.340Z,12.15
2023-07-02T03:22:23.412Z,12.20
2023-07-02T03:24:51.706Z,12.20
2023-07-02T03:27:19.902Z,11.48
2023-07-02T03:29:48.037Z,12.32
2023-07-02T03:32:16.147Z,12.52
2023-07-02T03:34:45.755Z,12.35
2023-07-02T03:37:13.924Z,11.98
2023-07-02T03:39:42.225Z,11.35
2023-07-02T03:42:10.492Z,12.77
2023-07-02T03:44:38.810Z,11.55
2023-07-02T03:47:09.553Z,11.55
2023-07-02T03:49:37.823Z,11.98
2023-07-02T03:52:08.638Z,12.05
2023-07-02T03:54:37.108Z,11.48
2023-07-02T03:57:05.875Z,11.27
2023-07-02T03:59:34.026Z,11.77
2023-07-02T04:02:02.237Z,11.15
2023-07-02T04:04:30.848Z,11.13
2023-07-02T04:06:59.041Z,11.18
2023-07-02T04:09:28.696Z,11.90
2023-07-02T04:11:56.936Z,10.98
2023-07-02T04:14:25.329Z,10.43
2023-07-02T04:16:53.619Z,10.90
2023-07-02T04:19:21.815Z,11.30
2023-07-02T04:21:50.296Z,10.63
2023-07-02T04:24:18.765Z,10.88
2023-07-02T04:27:11.186Z,10.70
2023-07-02T04:29:36.921Z,11.02
2023-07-02T04:32:05.335Z,10.88
2023-07-02T04:34:33.618Z,10.38
2023-07-02T04:37:01.835Z,10.93
2023-07-02T04:39:29.986Z,10.18
2023-07-02T04:41:59.823Z,10.23
2023-07-02T04:44:30.485Z,10.70
2023-07-02T04:46:59.700Z,9.95
2023-07-02T04:49:28.000Z,10.38
2023-07-02T04:51:56.849Z,9.77
2023-07-02T04:54:25.102Z,10.55
2023-07-02T04:56:53.469Z,10.13
2023-07-02T04:59:24.064Z,10.68
2023-07-02T05:01:52.289Z,10.43
2023-07-02T05:04:21.075Z,10.13
2023-07-02T05:06:49.579Z,9.93
2023-07-02T05:09:17.751Z,9.85
2023-07-02T05:11:46.027Z,9.68
2023-07-02T05:14:14.209Z,9.57
2023-07-02T05:16:43.886Z,9.75
2023-07-02T05:19:11.937Z,9.32
2023-07-02T05:21:40.272Z,9.18
2023-07-02T05:24:10.746Z,9.48
2023-07-02T05:26:39.089Z,9.68
2023-07-02T05:29:07.376Z,9.23
2023-07-02T05:31:36.208Z,8.25
2023-07-02T05:34:05.748Z,9.10
2023-07-02T05:36:35.716Z,7.85
2023-07-02T05:39:03.997Z,8.55
2023-07-02T05:41:32.220Z,8.77
2023-07-02T05:44:00.619Z,8.57
2023-07-02T05:46:29.227Z,9.00
2023-07-02T05:48:58.297Z,8.27
2023-07-02T05:51:28.166Z,8.23
2023-07-02T05:53:56.340Z,8.68
2023-07-02T05:56:24.593Z,7.80
2023-07-02T05:58:52.800Z,7.70
2023-07-02T06:01:21.032Z,8.45
2023-07-02T06:03:51.777Z,9.40
2023-07-02T06:06:20.407Z,11.43
2023-07-02T06:08:49.952Z,10.68
2023-07-02T06:11:18.266Z,10.25
2023-07-02T06:13:46.521Z,10.02
2023-07-02T06:16:14.726Z,11.45
2023-07-02T06:18:43.192Z,13.00
2023-07-02T06:21:11.477Z,17.17
2023-07-02T06:23:43.790Z,15.55
2023-07-02T06:26:13.894Z,14.45
2023-07-02T06:28:42.087Z,12.65
2023-07-02T06:31:10.242Z,9.95
2023-07-02T06:33:41.723Z,9.82
2023-07-02T06:36:11.873Z,9.25
2023-07-02T06:38:41.316Z,7.57
2023-07-02T06:41:09.653Z,8.02
2023-07-02T06:43:39.268Z,7.10
2023-07-02T06:46:07.540Z,7.40
2023-07-02T06:48:35.693Z,7.65
2023-07-02T06:51:03.843Z,7.65
2023-07-02T06:53:31.992Z,6.82
2023-07-02T06:56:00.328Z,6.97
2023-07-02T06:58:28.598Z,6.75
2023-07-02T07:00:58.075Z,6.50
2023-07-02T07:03:26.442Z,6.75
2023-07-02T07:05:54.967Z,7.05
2023-07-02T07:08:23.128Z,6.55
2023-07-02T07:10:52.984Z,6.00
2023-07-02T07:13:21.233Z,6.40
2023-07-02T07:15:49.512Z,6.20
2023-07-02T07:18:20.018Z,6.18
2023-07-02T07:20:49.057Z,6.15
2023-07-02T07:23:17.897Z,5.88
2023-07-02T07:25:46.169Z,5.38
2023-07-02T07:28:16.948Z,5.30
2023-07-02T07:30:45.707Z,5.10
2023-07-02T07:33:13.913Z,4.85
2023-07-02T07:35:43.430Z,4.82
2023-07-02T07:38:11.632Z,4.93
2023-07-02T07:40:39.942Z,4.75
2023-07-02T07:43:08.081Z,4.70
2023-07-02T07:45:36.685Z,4.30
2023-07-02T07:48:05.389Z,4.60
2023-07-02T07:50:33.775Z,4.50
2023-07-02T07:53:03.366Z,4.72
2023-07-02T07:55:31.695Z,4.07
2023-07-02T07:57:59.906Z,3.65
2023-07-02T08:00:28.282Z,4.05
2023-07-02T08:02:57.738Z,3.97
2023-07-02T08:05:26.214Z,3.95
2023-07-02T08:07:54.749Z,3.70
2023-07-02T08:10:25.036Z,3.90
2023-07-02T08:12:54.372Z,3.33
2023-07-02T08:15:22.707Z,3.22
2023-07-02T08:17:52.844Z,3.17
2023-07-02T08:20:21.038Z,3.15
2023-07-02T08:22:49.246Z,3.20
2023-07-02T08:25:18.556Z,3.33
2023-07-02T08:27:48.171Z,2.92
2023-07-02T08:30:16.472Z,2.92
2023-07-02T08:32:44.883Z,2.70
2023-07-02T08:35:13.108Z,2.85
2023-07-02T08:37:43.201Z,2.90
2023-07-02T08:40:19.139Z,3.00
2023-07-02T08:42:49.316Z,2.55
2023-07-02T08:45:18.282Z,2.70
2023-07-02T08:47:47.422Z,2.30
2023-07-02T08:50:16.194Z,2.60
2023-07-02T08:52:46.406Z,2.50
2023-07-02T08:55:15.067Z,2.65
2023-07-02T08:57:50.446Z,2.50
2023-07-02T09:00:20.953Z,2.60
2023-07-02T09:02:49.302Z,2.70
2023-07-02T09:05:17.476Z,2.40
2023-07-02T09:07:47.154Z,2.83
2023-07-02T09:10:27.577Z,2.55
2023-07-02T09:13:06.373Z,2.40
2023-07-02T09:15:40.597Z,2.38
2023-07-02T09:18:19.631Z,2.38
2023-07-02T09:20:48.628Z,2.35
2023-07-02T09:23:17.128Z,2.38
2023-07-02T09:25:45.934Z,2.38
2023-07-02T09:28:18.956Z,2.40
2023-07-02T09:30:56.805Z,2.40
2023-07-02T09:33:26.784Z,2.72
2023-07-02T09:35:55.241Z,2.85
2023-07-02T09:38:24.324Z,2.58
2023-07-02T09:40:54.008Z,2.30
2023-07-02T09:43:23.372Z,2.40
2023-07-02T09:45:55.006Z,2.50
2023-07-02T09:48:27.710Z,2.50
2023-07-02T09:50:57.418Z,2.50
2023-07-02T09:53:25.642Z,2.50
2023-07-02T09:55:54.398Z,2.30
2023-07-02T09:58:22.808Z,2.35
2023-07-02T10:00:51.626Z,2.30
2023-07-02T10:03:31.677Z,1.90
2023-07-02T10:06:07.324Z,2.40
2023-07-02T10:08:35.959Z,2.40
2023-07-02T10:11:15.228Z,2.42
2023-07-02T10:13:43.815Z,2.35
2023-07-02T10:16:12.036Z,2.30
2023-07-02T10:18:41.637Z,2.20
2023-07-02T10:21:17.716Z,2.40
2023-07-02T10:23:46.182Z,2.30
2023-07-02T10:26:18.612Z,2.20
2023-07-02T10:28:58.529Z,2.08
2023-07-02T10:31:27.046Z,2.20
2023-07-02T10:33:56.637Z,2.05
2023-07-02T10:36:26.282Z,2.30
2023-07-02T10:38:54.654Z,1.90
2023-07-02T10:41:27.461Z,2.08
2023-07-02T10:43:56.293Z,2.03
2023-07-02T10:46:24.807Z,2.05
2023-07-02T10:48:58.279Z,1.90
2023-07-02T10:51:29.659Z,1.95
2023-07-02T10:54:01.699Z,2.10
2023-07-02T10:56:30.388Z,1.95
2023-07-02T10:58:59.071Z,1.98
2023-07-02T11:01:29.279Z,2.10
2023-07-02T11:04:03.199Z,2.03
2023-07-02T11:06:34.578Z,2.17
2023-07-02T11:09:03.663Z,2.00
2023-07-02T11:11:31.769Z,2.10
2023-07-02T11:14:00.128Z,2.05
2023-07-02T11:16:30.716Z,1.90
2023-07-02T11:19:11.391Z,1.80
2023-07-02T11:21:40.019Z,1.85
2023-07-02T11:24:10.332Z,2.20
2023-07-02T11:26:39.498Z,2.10
2023-07-02T11:29:13.612Z,1.80
2023-07-02T11:31:41.979Z,2.15
2023-07-02T11:34:19.390Z,2.10
2023-07-02T11:36:48.318Z,2.00
2023-07-02T11:39:17.228Z,1.80
2023-07-02T11:41:47.077Z,1.60
2023-07-02T11:44:15.284Z,1.90
2023-07-02T11:46:43.555Z,1.67
2023-07-02T11:49:11.836Z,1.67
2023-07-02T11:51:42.775Z,1.60
2023-07-02T11:54:11.059Z,1.50
2023-07-02T11:56:39.663Z,1.55
2023-07-02T11:59:07.872Z,1.70
2023-07-02T12:01:36.023Z,1.75
2023-07-02T12:04:04.331Z,1.70
2023-07-02T12:06:32.500Z,1.70
2023-07-02T12:09:02.030Z,1.77
2023-07-02T12:11:30.139Z,1.80
2023-07-02T12:13:58.671Z,1.75
2023-07-02T12:16:28.769Z,1.80
2023-07-02T12:18:56.955Z,1.60
2023-07-02T12:21:25.173Z,1.50
2023-07-02T12:23:53.495Z,1.70
2023-07-02T12:26:22.945Z,1.55
2023-07-02T12:28:51.409Z,1.58
2023-07-02T12:31:19.648Z,1.70
2023-07-02T12:33:47.980Z,1.70
2023-07-02T12:36:16.182Z,1.80
2023-07-02T12:38:44.360Z,2.20
2023-07-02T12:41:14.188Z,2.80
2023-07-02T12:43:43.953Z,2.38
2023-07-02T12:46:12.066Z,1.80
2023-07-02T12:48:40.256Z,1.98
2023-07-02T12:51:08.480Z,1.83
2023-07-02T12:53:36.811Z,1.63
2023-07-02T12:56:05.472Z,1.80
2023-07-02T12:58:33.777Z,1.85
2023-07-02T13:01:03.393Z,1.60
2023-07-02T13:03:32.984Z,1.70
2023-07-02T13:06:01.217Z,1.63
2023-07-02T13:08:29.383Z,1.30
2023-07-02T13:10:57.577Z,1.48
2023-07-02T13:13:28.323Z,1.40
2023-07-02T13:15:58.936Z,1.50
2023-07-02T13:18:28.591Z,1.60
2023-07-02T13:20:56.876Z,1.50
2023-07-02T13:23:25.082Z,1.40
2023-07-02T13:25:53.316Z,1.63
2023-07-02T13:28:22.481Z,1.55
2023-07-02T13:30:50.965Z,1.42
2023-07-02T13:33:19.640Z,1.30
2023-07-02T13:35:49.466Z,1.55
2023-07-02T13:38:17.949Z,1.48
2023-07-02T13:40:46.257Z,1.40
2023-07-02T13:43:14.530Z,1.40
2023-07-02T13:45:42.802Z,1.40
2023-07-02T13:48:11.145Z,1.67
2023-07-02T13:50:39.492Z,1.50
2023-07-02T13:53:10.026Z,1.60
2023-07-02T13:55:38.345Z,1.65
2023-07-02T13:58:06.527Z,1.45
2023-07-02T14:00:36.085Z,1.20
2023-07-02T14:03:05.590Z,1.60
2023-07-02T14:05:34.430Z,1.40
2023-07-02T14:08:02.664Z,1.52
2023-07-02T14:10:30.957Z,1.40
2023-07-02T14:12:59.076Z,1.70
2023-07-02T14:15:28.825Z,1.40
2023-07-02T14:18:01.099Z,1.40
2023-07-02T14:20:29.434Z,1.20
2023-07-02T14:22:57.550Z,1.60
2023-07-02T14:25:40.566Z,1.30
2023-07-02T14:28:10.198Z,1.60
2023-07-02T14:30:39.035Z,1.40
2023-07-02T14:33:08.604Z,1.40
2023-07-02T14:35:37.084Z,1.40
2023-07-02T14:38:05.461Z,1.60
2023-07-02T14:40:34.228Z,1.70
2023-07-02T14:43:05.211Z,1.33
2023-07-02T14:45:33.543Z,1.30
2023-07-02T14:48:01.969Z,1.48
2023-07-02T14:50:32.507Z,1.70
2023-07-02T14:53:00.747Z,1.60
2023-07-02T14:55:29.220Z,1.40
2023-07-02T14:57:57.333Z,1.50
2023-07-02T15:00:25.550Z,1.42
2023-07-02T15:02:53.929Z,1.38
2023-07-02T15:05:22.376Z,1.52
2023-07-02T15:07:52.759Z,1.60
2023-07-02T15:10:21.128Z,1.75
2023-07-02T15:12:49.206Z,1.50
2023-07-02T15:15:17.909Z,1.55
2023-07-02T15:17:46.121Z,1.60
2023-07-02T15:20:14.583Z,2.30
2023-07-02T15:22:42.802Z,1.83
2023-07-02T15:25:12.507Z,1.90
2023-07-02T15:27:40.770Z,1.58
2023-07-02T15:30:09.997Z,1.65
2023-07-02T15:32:38.215Z,1.70
2023-07-02T15:35:07.171Z,2.00
2023-07-02T15:37:35.421Z,1.63
2023-07-02T15:40:03.753Z,1.70
2023-07-02T15:42:33.942Z,1.77
2023-07-02T15:45:03.662Z,1.60
2023-07-02T15:47:33.737Z,1.70
2023-07-02T15:50:02.234Z,1.60
2023-07-02T15:52:30.424Z,3.40
2023-07-02T15:54:58.631Z,31.05
2023-07-02T15:57:26.766Z,32.92
2023-07-02T15:59:56.790Z,29.63
2023-07-02T16:02:25.016Z,23.88
2023-07-02T16:04:53.692Z,14.30
2023-07-02T16:07:22.035Z,12.52
2023-07-02T16:09:50.209Z,8.07
2023-07-02T16:12:18.427Z,6.88
2023-07-02T16:14:46.804Z,5.45
2023-07-02T16:17:16.359Z,5.05
2023-07-02T16:19:44.636Z,4.82
2023-07-02T16:22:13.432Z,4.50
2023-07-02T16:24:42.849Z,4.47
2023-07-02T16:27:13.475Z,3.50
2023-07-02T16:29:42.266Z,2.67
2023-07-02T16:32:14.917Z,2.60
2023-07-02T16:34:46.354Z,2.20
2023-07-02T16:37:14.512Z,2.40
2023-07-02T16:39:42.706Z,1.90
2023-07-02T16:42:12.924Z,2.20
2023-07-02T16:44:41.493Z,2.22
2023-07-02T16:47:10.005Z,1.70
2023-07-02T16:49:38.359Z,1.90
2023-07-02T16:52:08.963Z,1.90
2023-07-02T16:54:37.257Z,1.67
2023-07-02T16:57:06.673Z,1.98
2023-07-02T16:59:38.575Z,1.90
2023-07-02T17:02:09.305Z,1.80
2023-07-02T17:04:37.636Z,1.95
2023-07-02T17:07:07.711Z,1.92
2023-07-02T17:09:40.549Z,1.90
2023-07-02T17:12:12.917Z,1.80
2023-07-02T17:14:42.238Z,1.77
2023-07-02T17:17:13.576Z,1.60
2023-07-02T17:19:44.078Z,1.95
2023-07-02T17:22:15.452Z,1.77
2023-07-02T17:24:45.675Z,1.98
2023-07-02T17:27:16.340Z,1.70
2023-07-02T17:29:50.706Z,1.90
2023-07-02T17:32:19.015Z,1.80
2023-07-02T17:34:47.182Z,1.60
2023-07-02T17:37:18.271Z,1.67
2023-07-02T17:39:47.097Z,2.03
2023-07-02T17:42:16.643Z,1.92
2023-07-02T17:44:46.528Z,1.77
2023-07-02T17:47:17.075Z,2.00
2023-07-02T17:49:47.037Z,2.00
2023-07-02T17:52:18.756Z,1.92
2023-07-02T17:54:48.865Z,1.77
2023-07-02T17:57:18.317Z,1.80
2023-07-02T17:59:47.460Z,1.65
2023-07-02T18:02:17.734Z,1.90
2023-07-02T18:04:46.913Z,2.05
2023-07-02T18:07:19.533Z,1.92
2023-07-02T18:09:50.590Z,1.63
2023-07-02T18:12:20.912Z,1.83
2023-07-02T18:14:49.129Z,1.70
2023-07-02T18:17:17.774Z,1.80
2023-07-02T18:19:46.124Z,1.70
2023-07-02T18:22:14.328Z,1.90
2023-07-02T18:24:44.157Z,1.70
2023-07-02T18:27:14.388Z,1.90
2023-07-02T18:29:42.594Z,1.90
2023-07-02T18:32:11.018Z,2.00
2023-07-02T18:34:42.231Z,1.90
2023-07-02T18:37:11.033Z,1.80
2023-07-02T18:39:39.683Z,1.98
2023-07-02T18:42:12.160Z,1.90
2023-07-02T18:44:41.273Z,2.15
2023-07-02T18:47:12.642Z,2.20
2023-07-02T18:49:41.942Z,2.42
2023-07-02T18:52:12.999Z,1.88
2023-07-02T18:54:41.585Z,2.17
2023-07-02T18:57:12.912Z,1.80
2023-07-02T18:59:46.708Z,2.00
2023-07-02T19:02:14.955Z,2.30
2023-07-02T19:04:43.214Z,2.10
2023-07-02T19:07:11.504Z,2.17
2023-07-02T19:09:40.490Z,2.10
2023-07-02T19:12:10.778Z,2.17
2023-07-02T19:14:40.060Z,1.83
2023-07-02T19:17:09.932Z,2.10
2023-07-02T19:19:39.817Z,2.45
2023-07-02T19:22:08.584Z,2.15
2023-07-02T19:24:37.038Z,2.20
2023-07-02T19:27:08.724Z,1.95
2023-07-02T19:29:38.828Z,2.00
2023-07-02T19:32:07.640Z,2.10
2023-07-02T19:34:36.264Z,2.22
2023-07-02T19:37:06.307Z,2.10
2023-07-02T19:39:35.111Z,2.33
2023-07-02T19:42:03.382Z,2.35
2023-07-02T19:44:31.648Z,1.90
2023-07-02T19:47:01.250Z,2.38
2023-07-02T19:49:31.203Z,2.50
2023-07-02T19:51:59.401Z,2.17
2023-07-02T19:54:27.714Z,2.13
2023-07-02T19:56:57.796Z,2.38
2023-07-02T19:59:27.067Z,2.72
2023-07-02T20:01:55.278Z,2.40
2023-07-02T20:04:24.920Z,2.38
2023-07-02T20:06:53.527Z,2.45
2023-07-02T20:09:21.983Z,2.60
2023-07-02T20:11:50.137Z,2.33
2023-07-02T20:14:18.451Z,2.50
2023-07-02T20:16:51.926Z,2.17
2023-07-02T20:19:21.276Z,2.60
2023-07-02T20:21:55.969Z,2.85
2023-07-02T20:24:24.711Z,2.80
2023-07-02T20:26:53.366Z,2.78
2023-07-02T20:29:21.650Z,2.60
2023-07-02T20:31:50.764Z,2.60
2023-07-02T20:34:19.230Z,2.60
2023-07-02T20:36:47.654Z,2.70
2023-07-02T20:39:17.149Z,2.60
2023-07-02T20:41:47.284Z,2.22
2023-07-02T20:44:16.706Z,2.40
2023-07-02T20:46:47.461Z,2.60
2023-07-02T20:49:16.704Z,2.40
2023-07-02T20:51:45.150Z,2.47
2023-07-02T20:54:14.360Z,2.53
2023-07-02T20:56:44.225Z,2.67
2023-07-02T20:59:12.421Z,2.67
2023-07-02T21:01:40.712Z,2.70
2023-07-02T21:04:09.073Z,3.05
2023-07-02T21:06:38.469Z,3.03
2023-07-02T21:09:08.322Z,2.92
2023-07-02T21:11:36.822Z,2.97
2023-07-02T21:14:08.437Z,3.00
2023-07-02T21:16:37.543Z,2.88
2023-07-02T21:19:05.777Z,3.28
2023-07-02T21:21:35.438Z,3.10
2023-07-02T21:24:04.053Z,2.83
2023-07-02T21:26:32.595Z,2.67
2023-07-02T21:29:00.806Z,2.85
2023-07-02T21:31:30.500Z,3.15
2023-07-02T21:33:58.678Z,3.10
2023-07-02T21:36:26.973Z,2.90
2023-07-02T21:38:55.431Z,2.85
2023-07-02T21:41:23.640Z,2.97
2023-07-02T21:43:51.774Z,2.83
2023-07-02T21:46:20.277Z,2.78
2023-07-02T21:48:49.749Z,3.40
2023-07-02T21:51:19.065Z,2.80
2023-07-02T21:53:47.257Z,2.95
2023-07-02T21:56:15.528Z,3.15
2023-07-02T21:58:44.424Z,2.65
2023-07-02T22:01:12.943Z,2.83
2023-07-02T22:03:41.062Z,3.13
2023-07-02T22:06:10.945Z,3.00
2023-07-02T22:08:39.285Z,3.20
2023-07-02T22:11:22.942Z,2.60
2023-07-02T22:13:52.392Z,2.83
2023-07-02T22:16:21.055Z,2.60
2023-07-02T22:18:49.406Z,3.22
2023-07-02T22:21:19.168Z,2.53
2023-07-02T22:23:49.282Z,3.10
2023-07-02T22:26:17.841Z,2.90
2023-07-02T22:28:46.127Z,2.80
2023-07-02T22:31:14.329Z,2.95
2023-07-02T22:33:42.578Z,2.72
2023-07-02T22:36:10.814Z,2.90
2023-07-02T22:38:40.540Z,2.70
2023-07-02T22:41:08.695Z,3.15
2023-07-02T22:43:36.873Z,3.60
2023-07-02T22:46:05.095Z,3.28
2023-07-02T22:48:33.349Z,3.22
2023-07-02T22:51:01.585Z,3.70
2023-07-02T22:53:29.880Z,3.05
2023-07-02T22:55:59.401Z,3.20
2023-07-02T22:58:27.636Z,3.25
2023-07-02T23:00:55.788Z,3.58
2023-07-02T23:03:24.271Z,3.58
2023-07-02T23:05:52.811Z,3.30
2023-07-02T23:08:21.428Z,3.10
2023-07-02T23:10:49.677Z,3.70
2023-07-02T23:13:19.940Z,3.75
2023-07-02T23:15:48.469Z,3.42
2023-07-02T23:18:16.930Z,3.47
2023-07-02T23:20:46.612Z,3.40
2023-07-02T23:23:18.578Z,3.30
2023-07-02T23:25:49.953Z,3.58
2023-07-02T23:28:19.807Z,3.42
2023-07-02T23:30:48.804Z,3.47
2023-07-02T23:33:17.119Z,3.60
2023-07-02T23:35:45.355Z,3.40
2023-07-02T23:38:13.629Z,3.80
2023-07-02T23:40:41.937Z,3.80
2023-07-02T23:43:10.241Z,3.20
2023-07-02T23:45:39.785Z,3.80
2023-07-02T23:48:08.450Z,3.60
2023-07-02T23:50:37.591Z,3.90
2023-07-02T23:53:05.871Z,3.60
2023-07-02T23:55:34.024Z,4.10
2023-07-02T23:58:02.315Z,3.65
